Latest Coastal Weather Observations for Low Head

IDV60701

Issued at 2:51 pm EDT Tuesday 24 October 2017 (issued every 10 minutes, with the page automatically refreshed every 10 minutes)

About coastal observations | Map of coastal stations | Coastal observations for VIC | Marine services | Other Formats
Station Details ID: 091293 Name: LOW HEAD Lat: -41.05 Lon: 146.79 Height: 3.0 m
Data from the previous 72 hours. | See also: Recent months at Low Head
Date/Time
EDT
Temp
°C
Wind Pressure Rain since
9am
mm
Weather Cloud Vis
km
Sea
Height
m
Swell
Dir  Spd
kts
Gust
kts
hPa Trend Height
m
Period
s
Dir
24/02:30pm 16.4 WNW 14 17 1013.1 - 0.0 - - - - - - -
24/02:00pm 16.5 NW 15 17 1013.3 - 0.0 - - - - - - -
24/01:30pm 16.2 WNW 15 17 1013.7 - 0.0 - - - - - - -
24/01:00pm 16.0 WNW 17 20 1013.7 - 0.0 - - - - - - -
24/12:30pm 15.8 WNW 17 21 1013.9 - 0.0 - - - - - - -
24/12:00pm 15.6 WNW 17 21 1014.1 - 0.0 - - - - - - -
24/11:30am 15.1 WNW 15 17 1014.3 - 0.0 - - - - - - -
24/11:00am 14.6 WNW 16 18 1014.2 - 0.0 - - - - - - -
24/10:30am 14.9 W 13 17 1014.4 - 0.0 - - - - - - -
24/10:00am 14.6 W 16 19 1014.1 - 0.0 - - - - - - -
24/09:30am 13.4 WSW 14 17 1013.9 - 0.0 - - - - - - -
24/09:00am 13.1 W 16 18 1014.0 - 0.0 - - - - - - -
24/08:30am 13.1 W 17 20 1013.8 - 0.0 - - - - - - -
24/08:00am 13.1 W 17 21 1013.7 - 0.0 - - - - - - -
24/07:30am 12.9 W 17 20 1013.7 - 0.0 - - - - - - -
24/07:00am 12.9 W 17 21 1013.4 - 0.0 - - - - - - -
24/06:30am 12.8 W 17 20 1013.0 - 0.0 - - - - - - -
24/06:00am 12.8 W 19 22 1012.7 - 0.0 - - - - - - -
24/05:30am 12.8 W 19 22 1012.4 - 0.0 - - - - - - -
24/05:00am 12.7 W 21 24 1012.1 - 0.0 - - - - - - -
24/04:30am 12.8 W 21 24 1012.1 - 0.0 - - - - - - -
24/04:00am 12.8 W 21 25 1012.1 - 0.0 - - - - - - -
24/03:30am 12.9 WNW 23 27 1012.1 - 0.0 - - - - - - -
24/03:00am 12.9 W 23 27 1012.1 - 0.0 - - - - - - -
24/02:30am 12.9 WNW 23 28 1012.3 - 0.0 - - - - - - -
24/02:00am 12.9 WNW 21 25 1012.4 - 0.0 - - - - - - -
24/01:30am 12.9 WNW 21 24 1012.3 - 0.0 - - - - - - -
24/01:00am 13.0 WNW 23 26 1012.8 - 0.0 - - - - - - -
24/12:30am 13.0 WNW 23 26 1012.9 - 0.0 - - - - - - -
24/12:00am 13.1 WNW 23 28 1013.0 - 0.0 - - - - - - -
 
Date/Time
EDT
Temp
°C
Wind Pressure Rain since
9am
mm
Weather Cloud Vis
km
Sea
Height
m
Swell
Dir  Spd
kts
Gust
kts
hPa Trend Height
m
Period
s
Dir
23/11:30pm 13.0 WNW 24 29 1013.0 - 0.0 - - - - - - -
23/11:00pm 13.2 WNW 22 25 1012.8 - 0.0 - - - - - - -
23/10:30pm 13.4 WNW 21 25 1012.9 - 0.0 - - - - - - -
23/10:00pm 13.5 WNW 21 26 1012.9 - 0.0 - - - - - - -
23/09:30pm 13.6 WNW 19 23 1013.0 - 0.0 - - - - - - -
23/09:00pm 13.7 WNW 18 22 1012.7 - 0.0 - - - - - - -
23/08:30pm 13.9 NW 16 19 1012.3 - 0.0 - - - - - - -
23/08:00pm 14.0 WNW 13 16 1012.3 - 0.0 - - - - - - -
23/07:30pm 14.0 W 10 15 1012.2 - 0.0 - - - - - - -
23/07:00pm 14.2 NW 17 21 1012.2 - 0.0 - - - - - - -
23/06:30pm 14.2 W 10 13 1012.5 - 0.0 - - - - - - -
23/06:00pm 14.6 WNW 15 19 1012.5 - 0.0 - - - - - - -
23/05:30pm 14.9 NW 14 17 1012.4 - 0.0 - - - - - - -
23/05:00pm 15.0 NW 15 19 1012.7 - 0.0 - - - - - - -
23/04:30pm 15.3 NW 13 17 1012.8 - 0.0 - - - - - - -
23/04:00pm 15.6 NW 13 15 1013.1 - 0.0 - - - - - - -
23/03:30pm 16.2 NW 13 15 1013.3 - 0.0 - - - - - - -
23/03:00pm 16.3 NW 13 15 1013.5 - 0.0 - - - - - - -
23/02:30pm 16.4 NW 13 15 1013.5 - 0.0 - - - - - - -
23/02:00pm 17.2 WNW 13 15 1013.7 - 0.0 - - - - - - -
23/01:30pm 17.2 WNW 12 14 1013.9 - 0.0 - - - - - - -
23/01:00pm 17.0 WNW 12 13 1013.8 - 0.0 - - - - - - -
23/12:30pm 16.5 WNW 14 16 1014.0 - 0.0 - - - - - - -
23/12:00pm 16.7 NW 13 14 1013.9 - 0.0 - - - - - - -
23/11:30am 16.5 NW 11 13 1014.2 - 0.0 - - - - - - -
23/11:00am 16.2 WNW 9 11 1014.3 - 0.0 - - - - - - -
23/10:30am 15.7 NW 7 8 1014.2 - 0.0 - - - - - - -
23/10:00am 15.5 SSW 5 5 1014.0 - 0.0 - - - - - - -
23/09:30am 14.3 S 8 9 1014.2 - 0.0 - - - - - - -
23/09:00am 13.2 S 6 7 1014.1 - 0.0 - - - - - - -
23/08:30am 12.8 SSE 4 5 1014.2 - 0.0 - - - - - - -
23/08:00am 11.9 WSW 7 9 1014.1 - 0.0 - - - - - - -
23/07:30am 11.5 SW 1 3 1013.6 - 0.0 - - - - - - -
23/07:00am 10.2 SW 3 4 1013.3 - 0.0 - - - - - - -
23/06:30am 9.9 S 6 8 1012.9 - 0.0 - - - - - - -
23/06:00am 9.9 S 7 8 1012.9 - 0.0 - - - - - - -
23/05:30am 9.7 S 7 8 1012.7 - 0.0 - - - - - - -
23/05:00am 10.0 S 5 6 1013.0 - 0.0 - - - - - - -
23/04:30am 10.3 S 5 6 1013.0 - 0.0 - - - - - - -
23/04:00am 10.4 SSE 6 6 1013.1 - 0.0 - - - - - - -
23/03:30am 11.2 S 5 7 1013.0 - 0.0 - - - - - - -
23/03:00am 12.7 W 10 12 1012.9 - 0.0 - - - - - - -
23/02:30am 12.7 W 11 12 1012.8 - 0.0 - - - - - - -
23/02:00am 12.6 W 8 10 1013.0 - 0.0 - - - - - - -
23/01:30am 12.8 WNW 9 11 1013.3 - 0.0 - - - - - - -
23/01:00am 12.6 WNW 9 10 1013.5 - 0.0 - - - - - - -
23/12:30am 12.8 WNW 4 5 1013.6 - 0.0 - - - - - - -
23/12:00am 13.0 WSW 5 6 1013.4 - 0.0 - - - - - - -
 
Date/Time
EDT
Temp
°C
Wind Pressure Rain since
9am
mm
Weather Cloud Vis
km
Sea
Height
m
Swell
Dir  Spd
kts
Gust
kts
hPa Trend Height
m
Period
s
Dir
22/11:30pm 13.3 W 8 9 1013.5 - 0.0 - - - - - - -
22/11:00pm 13.6 W 8 10 1013.4 - 0.0 - - - - - - -
22/10:30pm 13.9 W 9 12 1013.2 - 0.0 - - - - - - -
22/10:00pm 13.9 WSW 10 11 1013.0 - 0.0 - - - - - - -
22/09:30pm 14.1 W 13 14 1013.0 - 0.0 - - - - - - -
22/09:00pm 14.4 W 17 19 1012.5 - 0.0 - - - - - - -
22/08:30pm 14.8 W 17 19 1012.2 - 0.0 - - - - - - -
22/08:00pm 14.7 W 17 20 1012.2 - 0.0 - - - - - - -
22/07:30pm 15.1 W 18 20 1011.7 - 0.0 - - - - - - -
22/07:00pm 15.5 W 22 25 1011.2 - 0.0 - - - - - - -
22/06:30pm 15.5 WNW 18 22 1011.1 - 0.0 - - - - - - -
22/06:00pm 15.1 NW 17 19 1011.1 - 0.0 - - - - - - -
22/05:30pm 15.4 NW 16 19 1010.9 - 0.0 - - - - - - -
22/05:00pm 15.5 NW 16 19 1011.1 - 0.0 - - - - - - -
22/04:30pm 15.7 NW 17 20 1011.0 - 0.0 - - - - - - -
22/04:00pm 15.2 NNW 16 19 1011.5 - 0.0 - - - - - - -
22/03:30pm 15.5 NNW 15 18 1011.9 - 0.0 - - - - - - -
22/03:00pm 15.5 NNW 15 18 1012.1 - 0.0 - - - - - - -
22/02:30pm 16.2 NW 17 19 1012.6 - 0.0 - - - - - - -
22/02:00pm 15.7 WNW 17 19 1012.7 - 0.0 - - - - - - -
22/01:30pm 16.0 WNW 17 20 1012.7 - 0.0 - - - - - - -
22/01:00pm 15.0 WNW 15 17 1012.7 - 0.0 - - - - - - -
22/12:30pm 15.5 WNW 17 19 1012.8 - 0.0 - - - - - - -
22/12:00pm 15.1 W 16 19 1013.0 - 0.0 - - - - - - -
22/11:30am 15.6 WNW 14 17 1013.2 - 0.0 - - - - - - -
22/11:00am 14.6 WNW 16 19 1013.3 - 0.0 - - - - - - -
22/10:30am 14.2 W 16 19 1013.4 - 0.0 - - - - - - -
22/10:00am 14.0 W 16 18 1013.5 - 0.0 - - - - - - -
22/09:30am 13.3 WSW 17 20 1013.3 - 0.0 - - - - - - -
22/09:00am 13.0 WSW 18 20 1012.9 - 0.0 - - - - - - -
22/08:30am 12.7 W 17 19 1012.9 - 0.0 - - - - - - -
22/08:00am 12.4 W 22 25 1012.6 - 0.0 - - - - - - -
22/07:30am 12.3 W 19 22 1012.6 - 0.0 - - - - - - -
22/07:00am 12.1 WSW 18 23 1012.5 - 0.0 - - - - - - -
22/06:30am 12.2 WSW 15 18 1012.5 - 0.0 - - - - - - -
22/06:00am 12.1 W 17 19 1011.8 - 0.0 - - - - - - -
22/05:30am 12.2 WSW 12 16 1012.1 - 0.0 - - - - - - -
22/05:00am 12.3 W 16 18 1012.1 - 0.0 - - - - - - -
22/04:30am 12.2 W 13 17 1012.5 - 0.0 - - - - - - -
22/04:00am 12.2 W 11 15 1012.7 - 0.0 - - - - - - -
22/03:30am 12.2 W 17 21 1012.6 - 0.0 - - - - - - -
22/03:00am 12.1 W 21 24 1012.6 - 0.0 - - - - - - -
22/02:30am 12.2 W 20 22 1012.9 - 0.0 - - - - - - -
22/02:00am 12.2 W 20 23 1013.2 - 0.0 - - - - - - -
22/01:30am 12.3 W 17 21 1013.7 - 0.0 - - - - - - -
22/01:00am 12.3 W 18 21 1014.2 - 0.0 - - - - - - -
22/12:30am 12.3 W 19 22 1014.5 - 0.0 - - - - - - -
22/12:00am 12.4 W 17 20 1014.8 - 0.0 - - - - - - -
 
Date/Time
EDT
Temp
°C
Wind Pressure Rain since
9am
mm
Weather Cloud Vis
km
Sea
Height
m
Swell
Dir  Spd
kts
Gust
kts
hPa Trend Height
m
Period
s
Dir
21/11:30pm 12.5 W 19 22 1015.1 - 0.0 - - - - - - -
21/11:00pm 12.5 W 21 23 1015.3 - 0.0 - - - - - - -
21/10:30pm 12.6 W 19 23 1015.5 - 0.0 - - - - - - -
21/10:00pm 12.8 W 21 24 1015.6 - 0.0 - - - - - - -
21/09:30pm 13.0 W 20 23 1015.5 - 0.0 - - - - - - -
21/09:00pm 13.2 WSW 24 29 1015.4 - 0.0 - - - - - - -
21/08:30pm 13.5 W 27 32 1015.0 - 0.0 - - - - - - -
21/08:00pm 13.7 WSW 23 29 1015.0 - 0.0 - - - - - - -
21/07:30pm 14.0 W 24 28 1014.8 - 0.0 - - - - - - -
21/07:00pm 14.6 W 21 23 1014.9 - 0.0 - - - - - - -
21/06:30pm 14.6 W 18 21 1015.0 - 0.0 - - - - - - -
21/06:00pm 14.8 WNW 17 19 1015.2 - 0.0 - - - - - - -
21/05:30pm 14.8 WNW 19 22 1015.4 - 0.0 - - - - - - -
21/05:00pm 14.9 WNW 21 24 1015.3 - 0.0 - - - - - - -
21/04:30pm 15.2 WNW 20 25 1015.5 - 0.0 - - - - - - -
21/04:00pm 15.5 WNW 21 24 1015.9 - 0.0 - - - - - - -
21/03:30pm 15.3 WNW 22 25 1016.0 - 0.0 - - - - - - -
21/03:00pm 15.6 WNW 20 23 1016.7 - 0.0 - - - - - - -

Other Formats:

Comma delimited format used in spreadsheet applications
http://www.bom.gov.au/fwo/IDV60701/IDV60701.95964.axf

JavaScript Object Notation format (JSON) in row-major order
http://www.bom.gov.au/fwo/IDV60701/IDV60701.95964.json